Time;durP1;ratioP1;P1;durP2;ratioP2;P2;SDS_P1;SDS_P2;PMS_P1;PMS_P2;Temp;Humidity;BMP_temperature;BMP_pressure;BME280_temperature;BME280_humidity;BME280_pressure;Samples;Min_cycle;Max_cycle;Signal;HPM_P1;HPM_P2
2022/04/16 00:00:55;;;;;;;18.13;12.77;;;;;;;7.79;78.76;102844.81;6527614;22;20445;-77
2022/04/16 00:03:26;;;;;;;15.45;12.68;;;;;;;7.63;78.71;102848.63;6527475;22;20062;-78
2022/04/16 00:05:58;;;;;;;16.73;13.57;;;;;;;7.54;79.06;102851.81;6527922;22;20039;-77
2022/04/16 00:08:30;;;;;;;19.13;14.50;;;;;;;7.51;79.24;102850.84;6527527;22;20270;-78
2022/04/16 00:11:02;;;;;;;15.70;13.48;;;;;;;7.54;79.48;102851.81;6528026;22;20410;-79
2022/04/16 00:13:33;;;;;;;16.40;13.17;;;;;;;7.36;79.66;102843.41;6527503;22;20008;-80
2022/04/16 00:16:04;;;;;;;15.37;13.30;;;;;;;7.36;80.06;102854.69;6527538;22;20003;-81
2022/04/16 00:18:36;;;;;;;15.50;12.97;;;;;;;7.31;80.51;102851.06;6499562;22;20014;-81
2022/04/16 00:21:07;;;;;;;18.80;14.73;;;;;;;7.32;80.37;102850.19;6528049;22;20434;-80
2022/04/16 00:23:40;;;;;;;18.13;13.67;;;;;;;7.26;80.69;102837.00;6528132;22;20007;-81
2022/04/16 00:26:12;;;;;;;19.13;12.98;;;;;;;7.25;81.01;102850.84;6527941;22;20008;-80
2022/04/16 00:28:43;;;;;;;14.73;13.23;;;;;;;7.10;80.86;102846.00;6527449;22;20015;-80
2022/04/16 00:31:14;;;;;;;14.77;13.23;;;;;;;7.20;81.40;102857.59;6527955;22;20007;-80
2022/04/16 00:33:46;;;;;;;19.93;14.40;;;;;;;7.32;81.44;102854.50;6527476;22;20015;-80
2022/04/16 00:36:17;;;;;;;15.53;13.27;;;;;;;7.25;81.63;102846.53;6527588;22;20057;-80
2022/04/16 00:38:49;;;;;;;20.77;16.03;;;;;;;7.07;82.01;102854.56;6528204;22;20031;-79
2022/04/16 00:41:22;;;;;;;18.37;14.93;;;;;;;7.03;82.43;102852.66;6528263;22;20012;-81
2022/04/16 00:43:54;;;;;;;22.30;15.50;;;;;;;7.04;82.86;102853.56;6527545;22;20402;-78
2022/04/16 00:46:25;;;;;;;16.57;14.80;;;;;;;6.97;82.91;102849.88;6500110;22;20035;-79
2022/04/16 00:48:57;;;;;;;17.47;14.13;;;;;;;6.93;82.94;102854.06;6550415;22;20341;-79
2022/04/16 00:51:29;;;;;;;16.70;13.90;;;;;;;6.89;83.34;102857.38;6560161;22;20069;-79
2022/04/16 00:54:00;;;;;;;16.77;14.13;;;;;;;6.92;83.39;102857.50;6559878;22;20106;-79
2022/04/16 00:56:32;;;;;;;22.37;14.83;;;;;;;7.04;83.15;102853.56;6559827;22;20034;-78
2022/04/16 00:59:06;;;;;;;22.13;14.77;;;;;;;6.97;82.94;102851.56;6559448;22;20053;-79
2022/04/16 01:01:38;;;;;;;20.67;15.15;;;;;;;6.93;83.66;102850.59;6559995;22;20439;-79
2022/04/16 01:04:09;;;;;;;17.17;14.77;;;;;;;6.89;83.91;102849.59;6559952;22;20007;-79
2022/04/16 01:06:46;;;;;;;18.03;14.97;;;;;;;6.71;84.40;102842.06;6560412;22;20102;-79
2022/04/16 01:09:17;;;;;;;17.50;15.20;;;;;;;6.90;84.13;102861.72;6561883;22;20098;-79
2022/04/16 01:11:50;;;;;;;18.00;14.73;;;;;;;6.84;84.62;102853.75;6561895;22;20494;-79
2022/04/16 01:14:21;;;;;;;21.35;15.05;;;;;;;6.77;84.26;102848.28;6561506;22;20014;-79
2022/04/16 01:16:53;;;;;;;18.40;15.90;;;;;;;6.74;84.63;102862.00;6561397;22;20000;-78
2022/04/16 01:19:25;;;;;;;17.57;15.07;;;;;;;6.78;84.60;102858.72;6562207;22;20007;-79
2022/04/16 01:21:56;;;;;;;18.63;15.27;;;;;;;6.65;85.13;102861.66;6561792;22;20511;-79
2022/04/16 01:24:27;;;;;;;17.00;15.30;;;;;;;6.55;85.57;102861.34;6561995;22;20234;-79
2022/04/16 01:26:59;;;;;;;19.17;17.13;;;;;;;6.59;85.94;102862.34;6562011;22;20433;-76
2022/04/16 01:29:30;;;;;;;19.67;17.37;;;;;;;6.43;86.04;102863.47;6534675;22;20003;-79
2022/04/16 01:32:02;;;;;;;19.33;16.87;;;;;;;6.47;86.25;102867.03;6560950;22;20500;-80
2022/04/16 01:34:33;;;;;;;23.17;17.43;;;;;;;6.33;86.54;102861.38;6561427;22;20003;-80
2022/04/16 01:37:05;;;;;;;20.27;16.63;;;;;;;6.34;86.85;102873.47;6561726;22;20003;-79
2022/04/16 01:39:36;;;;;;;21.23;18.93;;;;;;;6.31;87.35;102865.56;6561708;22;20729;-79
2022/04/16 01:42:07;;;;;;;19.97;17.67;;;;;;;6.20;87.55;102872.97;6561352;22;19999;-79
2022/04/16 01:44:39;;;;;;;22.17;17.93;;;;;;;6.33;87.85;102876.91;6561234;22;20019;-79
2022/04/16 01:47:10;;;;;;;20.50;18.33;;;;;;;6.30;88.11;102869.00;6532920;22;20034;-79
2022/04/16 01:49:42;;;;;;;23.47;18.17;;;;;;;6.27;87.94;102866.31;6529157;22;20448;-79
2022/04/16 01:52:14;;;;;;;22.63;19.20;;;;;;;6.06;88.85;102869.81;6529084;22;20043;-80
2022/04/16 01:54:45;;;;;;;22.90;19.20;;;;;;;6.07;89.12;102869.00;6501903;22;20030;-80
2022/04/16 01:57:20;;;;;;;23.50;20.67;;;;;;;5.99;89.39;102873.88;6529387;22;20497;-79
2022/04/16 01:59:52;;;;;;;22.05;19.17;;;;;;;6.02;89.85;102870.50;6529444;22;20111;-81
2022/04/16 02:02:23;;;;;;;25.00;20.87;;;;;;;6.07;89.97;102871.59;6528863;22;20007;-79
2022/04/16 02:04:55;;;;;;;21.37;19.07;;;;;;;6.00;89.94;102862.69;6529310;22;20270;-81
2022/04/16 02:07:26;;;;;;;22.57;19.07;;;;;;;6.05;90.46;102869.75;6529627;22;20010;-78
2022/04/16 02:09:57;;;;;;;23.43;19.20;;;;;;;5.95;90.15;102869.34;6528893;22;20033;-78
2022/04/16 02:12:29;;;;;;;23.63;18.53;;;;;;;5.96;90.09;102865.97;6528918;22;20007;-81
2022/04/16 02:15:00;;;;;;;25.17;19.40;;;;;;;5.95;90.53;102868.47;6528893;22;20034;-79
2022/04/16 02:17:32;;;;;;;20.80;18.60;;;;;;;5.94;90.48;102866.69;6501003;22;20436;-78
2022/04/16 02:20:08;;;;;;;25.67;20.83;;;;;;;5.92;91.55;102887.34;6528992;22;19999;-80
2022/04/16 02:22:47;;;;;;;23.15;19.63;;;;;;;5.85;91.51;102886.22;6528838;22;20445;-80
2022/04/16 02:25:20;;;;;;;24.75;20.33;;;;;;;5.81;91.66;102878.25;6529843;22;20426;-80
2022/04/16 02:27:51;;;;;;;32.00;21.63;;;;;;;5.82;92.18;102880.03;6529246;22;19996;-80
2022/04/16 02:30:23;;;;;;;23.33;20.60;;;;;;;5.76;92.40;102883.25;6529124;22;20345;-81
2022/04/16 02:32:55;;;;;;;22.13;19.87;;;;;;;5.88;92.21;102874.25;6528007;22;20014;-80
2022/04/16 02:35:26;;;;;;;24.07;19.20;;;;;;;5.84;91.94;102888.75;6501647;22;20050;-80
2022/04/16 02:37:57;;;;;;;21.93;19.03;;;;;;;5.92;91.79;102881.28;6528561;22;20389;-77
2022/04/16 02:40:28;;;;;;;26.57;20.03;;;;;;;5.80;91.96;102879.97;6529096;22;20074;-79
2022/04/16 02:43:00;;;;;;;24.60;19.97;;;;;;;5.85;91.79;102890.53;6529119;22;20070;-79
2022/04/16 02:48:21;;;;;;;25.10;20.83;;;;;;;5.76;91.83;102895.31;6539481;22;20023;-79
2022/04/16 02:50:53;;;;;;;23.83;20.20;;;;;;;5.64;92.17;102887.94;6560817;22;20433;-78
2022/04/16 02:53:26;;;;;;;22.50;20.03;;;;;;;5.60;92.20;102888.63;6561014;22;20078;-79
2022/04/16 02:55:57;;;;;;;24.90;20.70;;;;;;;5.52;92.51;102896.06;6560837;22;20089;-79
2022/04/16 02:58:28;;;;;;;22.90;20.43;;;;;;;5.56;92.76;102897.09;6560402;22;20062;-79
2022/04/16 03:01:00;;;;;;;27.03;22.50;;;;;;;5.47;92.69;102895.88;6560065;22;20003;-79
2022/04/16 03:03:31;;;;;;;23.57;20.67;;;;;;;5.55;92.64;102901.38;6560412;22;20018;-79
2022/04/16 03:06:02;;;;;;;24.67;21.43;;;;;;;5.52;92.89;102902.94;6560520;22;20007;-78
2022/04/16 03:08:34;;;;;;;23.80;20.80;;;;;;;5.47;92.75;102902.75;6560094;22;20019;-78
2022/04/16 03:11:06;;;;;;;25.93;21.40;;;;;;;5.43;93.16;102904.31;6560338;22;20541;-78
2022/04/16 03:13:37;;;;;;;25.40;22.10;;;;;;;5.29;93.44;102902.84;6560250;22;20408;-78
2022/04/16 03:18:58;;;;;;;24.98;20.27;;;;;;;5.21;94.26;102909.41;6560508;22;20033;-78
2022/04/16 03:21:30;;;;;;;28.13;23.30;;;;;;;5.21;94.57;102909.41;6533343;22;19999;-79
2022/04/16 03:24:01;;;;;;;26.67;22.87;;;;;;;5.05;94.60;102900.94;6561491;22;20371;-80
2022/04/16 03:26:33;;;;;;;29.10;23.27;;;;;;;5.06;95.38;102902.75;6560340;22;20125;-79
2022/04/16 03:29:04;;;;;;;28.73;22.23;;;;;;;5.19;95.45;102913.63;6559983;22;20010;-79
2022/04/16 03:31:36;;;;;;;25.10;22.50;;;;;;;5.10;95.22;102906.34;6560355;22;20013;-80
2022/04/16 03:34:07;;;;;;;24.50;21.90;;;;;;;5.09;95.64;102910.63;6559644;22;20029;-80
2022/04/16 03:36:38;;;;;;;24.13;21.53;;;;;;;5.01;95.99;102906.81;6559499;22;20003;-79
2022/04/16 03:39:10;;;;;;;25.40;22.73;;;;;;;4.88;96.31;102899.34;6560237;22;20010;-79
2022/04/16 03:41:42;;;;;;;26.43;23.77;;;;;;;4.92;96.92;102911.56;6560325;22;20042;-80
2022/04/16 03:44:13;;;;;;;29.33;22.67;;;;;;;4.96;96.91;102910.00;6559947;22;20033;-79
2022/04/16 03:46:45;;;;;;;28.80;22.60;;;;;;;4.84;97.00;102894.84;6532074;22;20011;-78
2022/04/16 03:49:17;;;;;;;29.27;24.03;;;;;;;4.87;97.08;102903.63;6559736;22;20011;-79
2022/04/16 03:51:48;;;;;;;27.10;24.10;;;;;;;4.91;97.32;102909.78;6559531;22;20086;-78
2022/04/16 03:59:59;;;;;;;30.90;26.40;;;;;;;4.88;97.56;102910.56;6559809;22;20019;-79
2022/04/16 04:02:36;;;;;;;29.63;24.83;;;;;;;4.88;97.56;102917.44;6559694;22;19995;-79
2022/04/16 04:05:08;;;;;;;27.08;23.88;;;;;;;4.74;97.57;102914.22;6559663;22;20010;-78
2022/04/16 04:07:39;;;;;;;30.40;25.23;;;;;;;4.74;98.22;102909.06;6559468;22;20003;-79
2022/04/16 04:10:13;;;;;;;26.73;23.87;;;;;;;4.77;98.06;102910.91;6559768;22;19999;-78
2022/04/16 04:12:44;;;;;;;27.75;22.83;;;;;;;4.77;98.17;102921.25;6559809;22;20011;-78
2022/04/16 04:15:15;;;;;;;31.40;25.53;;;;;;;4.61;97.99;102920.53;6559282;22;20007;-79
2022/04/16 04:17:48;;;;;;;27.73;24.70;;;;;;;4.65;97.97;102919.84;6559684;22;19999;-79
2022/04/16 04:20:20;;;;;;;27.08;24.15;;;;;;;4.62;98.34;102927.47;6559883;22;20424;-80
2022/04/16 04:22:51;;;;;;;28.90;24.63;;;;;;;4.56;98.51;102920.31;6560075;22;20011;-80
2022/04/16 04:25:23;;;;;;;28.77;25.30;;;;;;;4.53;98.18;102932.22;6559826;22;20004;-80
2022/04/16 04:27:54;;;;;;;28.53;25.53;;;;;;;4.56;98.68;102943.56;6559984;22;20102;-80
2022/04/16 04:30:26;;;;;;;29.53;25.60;;;;;;;4.55;98.58;102931.44;6560137;22;20027;-80
2022/04/16 04:32:58;;;;;;;28.77;25.67;;;;;;;4.48;98.67;102936.28;6559778;22;20007;-80
2022/04/16 04:35:30;;;;;;;28.20;25.00;;;;;;;4.52;98.91;102946.81;6559189;22;20007;-81
2022/04/16 04:38:01;;;;;;;33.83;26.93;;;;;;;4.44;98.90;102949.84;6559379;22;20017;-81
2022/04/16 04:40:32;;;;;;;31.47;26.17;;;;;;;4.44;99.26;102950.72;6559793;22;20007;-81
2022/04/16 04:43:04;;;;;;;28.87;25.87;;;;;;;4.40;99.65;102947.94;6561181;22;20078;-81
2022/04/16 04:45:35;;;;;;;34.67;26.53;;;;;;;4.35;99.70;102948.59;6561220;22;20003;-79
2022/04/16 04:48:07;;;;;;;31.90;27.73;;;;;;;4.41;100.00;102958.31;6561267;22;20416;-79
2022/04/16 04:50:38;;;;;;;31.37;27.43;;;;;;;4.32;100.00;102955.31;6561439;22;20022;-80
2022/04/16 04:53:10;;;;;;;33.63;27.20;;;;;;;4.39;100.00;102959.94;6560734;22;20082;-80
2022/04/16 04:55:41;;;;;;;32.67;27.73;;;;;;;4.37;100.00;102957.28;6561170;22;20015;-80
2022/04/16 04:58:12;;;;;;;31.37;28.00;;;;;;;4.42;100.00;102966.97;6561105;22;20144;-79
2022/04/16 05:00:44;;;;;;;34.97;28.83;;;;;;;4.35;100.00;102968.38;6561904;22;20158;-79
2022/04/16 05:03:15;;;;;;;35.17;28.43;;;;;;;4.36;100.00;102968.47;6560869;22;20003;-78
2022/04/16 05:05:47;;;;;;;33.20;27.93;;;;;;;4.40;100.00;102971.19;6561465;22;20441;-78
2022/04/16 05:08:19;;;;;;;31.73;28.15;;;;;;;4.42;100.00;102973.00;6561487;22;20007;-78
2022/04/16 05:10:50;;;;;;;33.20;29.37;;;;;;;4.42;100.00;102980.75;6560680;22;20437;-78
2022/04/16 05:13:21;;;;;;;41.53;29.27;;;;;;;4.34;100.00;102967.47;6561027;22;20053;-79
2022/04/16 05:15:53;;;;;;;35.30;29.97;;;;;;;4.38;100.00;102971.13;6561387;22;20003;-77
2022/04/16 05:18:25;;;;;;;32.33;28.43;;;;;;;4.45;100.00;102978.31;6561224;22;20761;-78
2022/04/16 05:20:57;;;;;;;;;;;;;;;4.44;100.00;102984.28;6561996;22;20007;-79
2022/04/16 05:23:28;;;;;;;32.75;27.63;;;;;;;4.50;100.00;102981.13;6560787;22;19907;-80
2022/04/16 05:25:59;;;;;;;38.77;31.20;;;;;;;4.61;100.00;102987.69;6560621;22;20007;-80
2022/04/16 05:28:31;;;;;;;34.97;31.23;;;;;;;4.59;100.00;102991.00;6561386;22;20072;-79
2022/04/16 05:31:04;;;;;;;37.93;31.53;;;;;;;4.62;100.00;102988.56;6533849;22;20096;-79
2022/04/16 05:36:25;;;;;;;33.65;29.17;;;;;;;4.68;100.00;102991.44;6561252;22;20015;-79
2022/04/16 05:38:57;;;;;;;41.90;31.97;;;;;;;4.73;100.00;102996.03;6560998;22;20421;-79
2022/04/16 05:41:28;;;;;;;40.37;30.47;;;;;;;4.82;100.00;102992.09;6560978;22;20030;-79
2022/04/16 05:44:00;;;;;;;37.77;32.13;;;;;;;4.82;100.00;102995.56;6562394;22;20006;-79
2022/04/16 05:46:32;;;;;;;36.87;30.17;;;;;;;4.90;100.00;102991.63;6561712;22;20007;-79
2022/04/16 05:49:03;;;;;;;37.13;31.60;;;;;;;4.98;100.00;102991.09;6561289;22;20622;-79
2022/04/16 05:51:35;;;;;;;37.93;32.50;;;;;;;5.00;100.00;102987.75;6561665;22;20010;-78
2022/04/16 05:54:06;;;;;;;39.00;31.90;;;;;;;5.11;100.00;102996.88;6560749;22;20034;-78
2022/04/16 05:56:39;;;;;;;37.60;33.50;;;;;;;5.16;100.00;102999.69;6561554;22;20057;-78
2022/04/16 05:59:10;;;;;;;38.35;31.77;;;;;;;5.28;100.00;103002.84;6562119;22;20011;-80
2022/04/16 06:01:43;;;;;;;38.40;32.07;;;;;;;5.32;100.00;103001.25;6561224;22;20355;-80
2022/04/16 06:04:14;;;;;;;36.83;32.80;;;;;;;5.42;100.00;103010.31;6561398;22;20330;-80
2022/04/16 06:06:46;;;;;;;38.57;34.40;;;;;;;5.47;100.00;103006.22;6561803;22;20011;-81
2022/04/16 06:09:17;;;;;;;37.27;33.23;;;;;;;5.57;100.00;103020.44;6561007;22;20016;-80
2022/04/16 06:11:49;;;;;;;34.87;30.73;;;;;;;5.64;100.00;103014.72;6560914;22;20028;-79
2022/04/16 06:14:20;;;;;;;39.83;34.07;;;;;;;5.67;100.00;103014.88;6561386;22;20046;-80
2022/04/16 06:16:52;;;;;;;40.87;33.43;;;;;;;5.79;100.00;103019.66;6561617;22;20542;-80
2022/04/16 06:19:23;;;;;;;38.23;34.07;;;;;;;5.91;100.00;103025.38;6561422;22;20035;-79
2022/04/16 06:21:54;;;;;;;37.23;31.50;;;;;;;6.00;100.00;103030.97;6560903;22;20007;-79
2022/04/16 06:24:26;;;;;;;37.27;32.63;;;;;;;6.08;100.00;103038.19;6561364;22;20370;-81
2022/04/16 06:26:57;;;;;;;38.83;32.13;;;;;;;6.14;99.95;103034.13;6561034;22;20106;-80
2022/04/16 06:29:29;;;;;;;35.97;31.63;;;;;;;6.25;99.67;103033.69;6560435;22;19999;-79
2022/04/16 06:32:00;;;;;;;38.67;32.60;;;;;;;6.36;99.40;103025.56;6560715;22;20372;-81
2022/04/16 06:34:31;;;;;;;37.30;32.77;;;;;;;6.49;99.02;103034.72;6533481;22;20017;-78
2022/04/16 06:37:03;;;;;;;36.40;31.47;;;;;;;6.60;98.93;103035.16;6560323;22;20003;-81
2022/04/16 06:39:34;;;;;;;39.87;33.67;;;;;;;6.73;98.78;103034.81;6560573;22;20007;-78
2022/04/16 06:42:07;;;;;;;39.33;34.97;;;;;;;6.84;98.19;103026.53;6560985;22;20007;-81
2022/04/16 06:44:38;;;;;;;36.42;32.35;;;;;;;7.00;97.96;103033.19;6560770;22;20003;-79
2022/04/16 06:47:09;;;;;;;40.00;33.10;;;;;;;7.08;97.48;103045.66;6560224;22;20007;-81
2022/04/16 06:49:41;;;;;;;37.97;33.87;;;;;;;7.21;97.11;103036.63;6560086;22;20011;-78
2022/04/16 06:52:12;;;;;;;42.40;33.77;;;;;;;7.38;97.12;103037.22;6559954;22;20011;-78
2022/04/16 06:54:44;;;;;;;39.50;33.37;;;;;;;7.46;96.28;103035.78;6560390;22;20003;-78
2022/04/16 06:57:15;;;;;;;42.57;33.70;;;;;;;7.56;95.55;103037.00;6559831;22;20091;-81
2022/04/16 06:59:47;;;;;;;38.67;31.80;;;;;;;7.73;95.58;103040.22;6559797;22;20003;-77
2022/04/16 07:02:18;;;;;;;40.90;32.30;;;;;;;7.75;94.54;103035.09;6560104;22;20007;-77
2022/04/16 07:04:49;;;;;;;38.83;32.80;;;;;;;7.91;93.80;103039.97;6559692;22;20022;-80
2022/04/16 07:07:21;;;;;;;37.77;32.40;;;;;;;8.01;93.51;103036.84;6559499;22;20074;-77
2022/04/16 07:09:53;;;;;;;37.17;32.20;;;;;;;8.16;93.36;103044.28;6560672;22;20102;-77
2022/04/16 07:12:24;;;;;;;35.13;31.23;;;;;;;8.29;92.30;103047.28;6559996;22;20053;-80
2022/04/16 07:14:57;;;;;;;38.47;29.40;;;;;;;8.39;91.55;103047.63;6559636;22;20007;-78
2022/04/16 07:17:29;;;;;;;;;;;;;;;8.47;91.49;103047.94;6553334;22;20075;-79
2022/04/16 07:20:00;;;;;;;31.02;27.73;;;;;;;8.62;90.44;103049.25;6558464;22;20826;-78
2022/04/16 07:22:32;;;;;;;34.73;29.17;;;;;;;8.71;89.92;103050.44;6558168;22;20011;-78
2022/04/16 07:25:04;;;;;;;32.70;28.17;;;;;;;8.84;89.02;103056.88;6558067;22;20490;-78
2022/04/16 07:27:36;;;;;;;31.27;26.67;;;;;;;8.93;87.72;103053.69;6557875;22;20747;-79
2022/04/16 07:30:07;;;;;;;32.10;27.40;;;;;;;9.02;86.81;103047.88;6558604;22;20003;-77
2022/04/16 07:32:39;;;;;;;31.70;27.13;;;;;;;9.16;86.60;103058.69;6556857;22;20003;-78
2022/04/16 07:35:11;;;;;;;35.80;27.97;;;;;;;9.32;86.66;103053.09;6531392;22;20003;-80
2022/04/16 07:37:42;;;;;;;31.30;28.00;;;;;;;9.39;85.21;103051.56;6557071;22;19999;-78
2022/04/16 07:40:13;;;;;;;29.73;26.60;;;;;;;9.56;84.89;103052.88;6556881;22;20007;-81
2022/04/16 07:42:45;;;;;;;30.17;25.23;;;;;;;9.62;84.26;103054.81;6558414;22;20064;-79
2022/04/16 07:45:16;;;;;;;28.53;25.10;;;;;;;9.71;83.66;103049.84;6557242;22;20010;-79
2022/04/16 07:47:48;;;;;;;29.67;25.67;;;;;;;9.83;82.85;103052.75;6556397;22;20339;-81
2022/04/16 07:50:19;;;;;;;28.67;24.73;;;;;;;9.99;82.41;103056.66;6559892;22;20438;-79
2022/04/16 07:52:51;;;;;;;26.43;23.30;;;;;;;10.08;81.82;103056.03;6559582;22;20007;-80
2022/04/16 07:55:22;;;;;;;30.73;24.67;;;;;;;10.20;80.96;103058.94;6559407;22;20010;-78
2022/04/16 07:57:54;;;;;;;27.97;24.43;;;;;;;10.37;79.89;103061.13;6559522;22;20061;-78
2022/04/16 08:00:26;;;;;;;29.25;23.33;;;;;;;10.44;79.64;103059.56;6559708;22;20502;-78
2022/04/16 08:02:57;;;;;;;27.27;23.58;;;;;;;10.64;79.50;103058.31;6560055;22;19999;-80
2022/04/16 08:05:29;;;;;;;29.10;23.00;;;;;;;10.64;77.94;103057.41;6559906;22;20432;-78
2022/04/16 08:08:00;;;;;;;25.13;21.03;;;;;;;10.71;76.74;103064.53;6560134;22;20018;-79
2022/04/16 08:10:32;;;;;;;24.20;21.37;;;;;;;10.85;77.21;103060.53;6559970;22;20106;-80
2022/04/16 08:13:07;;;;;;;27.08;21.75;;;;;;;10.85;75.86;103054.41;6532181;22;20011;-79
2022/04/16 08:15:39;;;;;;;23.98;21.27;;;;;;;11.02;75.71;103054.78;6558955;22;20432;-78
2022/04/16 08:18:10;;;;;;;22.47;20.07;;;;;;;11.09;74.25;103054.06;6559772;22;20007;-81
2022/04/16 08:20:42;;;;;;;26.73;22.00;;;;;;;11.40;75.67;103066.03;6559735;22;20007;-79
2022/04/16 08:23:14;;;;;;;24.53;22.03;;;;;;;11.46;74.10;103058.34;6556166;22;20027;-80
2022/04/16 08:25:45;;;;;;;21.38;19.17;;;;;;;11.62;73.79;103054.31;6553862;22;20042;-80
2022/04/16 08:28:18;;;;;;;25.70;21.43;;;;;;;11.78;73.62;103059.78;6558473;22;20003;-79
2022/04/16 08:30:50;;;;;;;23.80;19.58;;;;;;;11.91;73.32;103061.78;6557386;22;20052;-79
2022/04/16 08:33:21;;;;;;;20.07;17.87;;;;;;;11.92;70.43;103068.81;6557237;22;20007;-79
2022/04/16 08:35:52;;;;;;;19.20;17.27;;;;;;;12.12;70.08;103070.91;6558515;22;20601;-80
2022/04/16 08:38:24;;;;;;;21.43;17.03;;;;;;;12.10;69.18;103067.38;6556858;22;20014;-77
2022/04/16 08:40:56;;;;;;;22.23;17.70;;;;;;;12.20;69.30;103064.06;6558384;22;19999;-78
2022/04/16 08:43:29;;;;;;;20.48;18.27;;;;;;;12.41;69.65;103074.00;6558028;22;20044;-78
2022/04/16 08:46:03;;;;;;;18.52;16.63;;;;;;;12.57;69.23;103070.78;6556624;22;20031;-80
2022/04/16 08:48:36;;;;;;;20.33;16.83;;;;;;;12.73;68.21;103073.63;6560389;22;20017;-78
2022/04/16 08:51:07;;;;;;;17.17;15.25;;;;;;;12.62;66.48;103081.28;6561477;22;20007;-80
2022/04/16 08:53:39;;;;;;;19.07;16.43;;;;;;;12.76;66.36;103076.28;6562012;22;20011;-80
2022/04/16 08:56:10;;;;;;;19.87;16.47;;;;;;;12.88;65.92;103086.94;6555216;22;20057;-79
2022/04/16 08:58:43;;;;;;;19.73;14.83;;;;;;;13.01;65.97;103074.00;6567246;22;20015;-79
2022/04/16 09:01:16;;;;;;;16.95;15.15;;;;;;;13.11;64.97;103078.53;6564649;22;20004;-80
2022/04/16 09:03:50;;;;;;;18.48;15.65;;;;;;;13.26;63.85;103072.59;6563514;22;20007;-81
2022/04/16 09:06:23;;;;;;;18.42;14.38;;;;;;;13.35;63.67;103070.13;6559399;22;20314;-80
2022/04/16 09:08:55;;;;;;;17.05;15.25;;;;;;;13.49;64.11;103063.31;6560661;22;20341;-79
2022/04/16 09:11:26;;;;;;;16.40;14.47;;;;;;;13.67;63.98;103062.66;6559624;22;20003;-79
2022/04/16 09:13:57;;;;;;;13.80;12.30;;;;;;;13.73;60.70;103064.44;6547823;22;20003;-79
2022/04/16 09:16:31;;;;;;;14.53;12.97;;;;;;;14.18;62.24;103064.88;6562636;22;20214;-78
2022/04/16 09:19:02;;;;;;;17.83;13.77;;;;;;;14.53;59.85;103065.16;6563601;22;20014;-78
2022/04/16 09:21:34;;;;;;;17.07;13.70;;;;;;;14.98;57.99;103064.59;6556546;22;20003;-78
2022/04/16 09:24:05;;;;;;;16.77;14.47;;;;;;;15.59;57.89;103058.72;6560229;22;20033;-77
2022/04/16 09:26:39;;;;;;;13.87;12.03;;;;;;;15.69;53.59;103058.72;6560052;22;20507;-80
2022/04/16 09:29:13;;;;;;;13.45;12.02;;;;;;;15.88;52.04;103066.69;6560217;22;20412;-81
2022/04/16 09:31:49;;;;;;;12.23;10.75;;;;;;;16.17;52.32;103061.44;6562359;22;20056;-79
2022/04/16 09:34:23;;;;;;;15.18;12.85;;;;;;;15.68;52.19;103053.44;6560949;22;20007;-80
2022/04/16 09:36:55;;;;;;;15.40;12.75;;;;;;;16.55;50.74;103063.19;6561120;22;20003;-80
2022/04/16 09:39:27;;;;;;;15.80;12.10;;;;;;;16.89;52.30;103070.19;6561370;22;20006;-81
2022/04/16 09:41:58;;;;;;;10.70;9.60;;;;;;;17.92;46.49;103051.22;6560974;22;20007;-80
2022/04/16 09:44:30;;;;;;;11.60;10.40;;;;;;;19.04;43.58;103053.69;6561068;22;20009;-81
2022/04/16 09:47:03;;;;;;;9.57;8.53;;;;;;;20.12;39.11;103054.81;6561101;22;20033;-82
2022/04/16 09:49:38;;;;;;;6.60;5.20;;;;;;;20.57;35.68;103045.16;6561110;22;20015;-80
2022/04/16 09:52:12;;;;;;;8.15;6.22;;;;;;;21.35;34.04;103038.28;6560878;22;20061;-80
2022/04/16 09:54:45;;;;;;;6.75;4.45;;;;;;;21.33;32.57;103042.78;6561631;22;20434;-82
2022/04/16 09:57:25;;;;;;;9.00;5.85;;;;;;;20.78;33.54;103037.72;6561244;22;20034;-81
2022/04/16 10:00:00;;;;;;;12.30;7.45;;;;;;;19.97;35.85;103051.50;6561182;22;20022;-80
2022/04/16 10:02:34;;;;;;;8.07;6.97;;;;;;;21.26;35.30;103045.56;6561185;22;20026;-81
2022/04/16 10:05:08;;;;;;;10.13;8.15;;;;;;;22.13;33.04;103044.41;6560829;22;20007;-80
2022/04/16 10:07:42;;;;;;;8.93;8.02;;;;;;;22.71;32.09;103041.16;6561462;22;20030;-82
2022/04/16 10:11:03;;;;;;;6.95;6.25;;;;;;;22.43;31.19;103031.28;6534205;22;20336;-82
2022/04/16 10:13:17;;;;;;;8.90;6.45;;;;;;;22.78;31.82;103040.03;6550205;22;20434;-81
2022/04/16 10:16:00;;;;;;;7.60;6.80;;;;;;;20.84;34.92;103042.03;6534022;22;20095;-83
2022/04/16 10:18:35;;;;;;;7.30;6.55;;;;;;;21.64;33.83;103027.94;6561356;22;20035;-82
2022/04/16 10:21:15;;;;;;;11.70;7.22;;;;;;;22.77;32.75;103022.38;6561936;22;20003;-82
2022/04/16 10:23:46;;;;;;;8.90;6.25;;;;;;;22.40;32.14;103029.56;6561832;22;20003;-85
2022/04/16 10:26:18;;;;;;;9.57;7.47;;;;;;;21.12;33.37;103029.06;6562215;22;20547;-80
2022/04/16 10:28:50;;;;;;;7.47;6.68;;;;;;;22.20;33.01;103034.50;6534521;22;20313;-81
2022/04/16 10:31:24;;;;;;;6.38;5.53;;;;;;;23.47;30.13;103027.38;6562927;22;20641;-80
2022/04/16 10:34:08;;;;;;;6.88;5.95;;;;;;;24.02;30.27;103039.81;6563436;22;20062;-81
2022/04/16 10:36:52;;;;;;;7.55;5.30;;;;;;;24.69;28.93;103033.94;6568875;22;20007;-81
2022/04/16 10:39:31;;;;;;;6.30;5.15;;;;;;;25.16;27.29;103025.03;6562119;22;20429;-80
2022/04/16 10:42:04;;;;;;;5.93;5.15;;;;;;;24.98;26.16;103037.31;6548015;22;20007;-79
2022/04/16 10:44:46;;;;;;;6.20;5.60;;;;;;;24.92;27.93;103027.75;6560926;22;20310;-80
2022/04/16 10:47:18;;;;;;;8.65;5.43;;;;;;;24.35;27.98;103031.59;6560661;22;20003;-80
2022/04/16 10:49:57;;;;;;;6.13;5.13;;;;;;;23.48;29.36;103025.59;6560373;22;20076;-80
2022/04/16 10:52:29;;;;;;;4.25;3.53;;;;;;;21.93;28.81;103017.50;6560090;22;20061;-79
2022/04/16 10:55:01;;;;;;;5.50;4.40;;;;;;;22.05;29.04;103027.81;6560554;22;20015;-81
2022/04/16 10:57:33;;;;;;;6.90;4.30;;;;;;;23.07;29.28;103025.94;6560676;22;20090;-79
2022/04/16 11:00:12;;;;;;;6.05;5.28;;;;;;;22.97;29.72;103023.56;6560805;22;20347;-80
2022/04/16 11:02:43;;;;;;;6.78;4.95;;;;;;;21.75;30.09;103027.69;6533369;22;20015;-83
2022/04/16 11:05:15;;;;;;;4.83;3.93;;;;;;;23.63;27.96;103019.75;6560553;22;20145;-81
2022/04/16 11:07:46;;;;;;;6.07;4.37;;;;;;;23.61;27.25;103026.06;6559918;22;20397;-82
2022/04/16 11:10:22;;;;;;;5.83;4.60;;;;;;;24.27;27.42;103023.88;6560247;22;20007;-82
2022/04/16 11:12:54;;;;;;;5.15;4.22;;;;;;;25.20;26.23;103020.47;6560240;22;20262;-80
2022/04/16 11:15:26;;;;;;;;;;;;;;;27.40;24.82;103034.13;6560441;22;20121;-82
2022/04/16 11:17:59;;;;;;;5.50;4.93;;;;;;;26.11;23.37;103023.00;6560792;22;19907;-81
2022/04/16 11:20:31;;;;;;;5.68;4.53;;;;;;;25.64;25.21;103032.03;6560976;22;20242;-82
2022/04/16 11:23:10;;;;;;;6.30;4.22;;;;;;;25.94;24.68;103015.69;6559648;22;20012;-82
2022/04/16 11:34:17;;;;;;;6.03;4.70;;;;;;;27.02;23.01;103021.63;6560359;22;20102;-79
2022/04/16 11:36:52;;;;;;;5.45;4.80;;;;;;;27.46;21.73;103015.06;6560124;22;20078;-80
2022/04/16 11:39:30;;;;;;;7.53;4.60;;;;;;;26.17;23.26;103008.50;6559611;22;20009;-81
2022/04/16 11:42:07;;;;;;;5.72;4.95;;;;;;;25.88;23.80;102999.91;6559929;22;20030;-81
2022/04/16 11:44:45;;;;;;;7.70;4.60;;;;;;;27.18;22.89;103002.16;6559505;22;20011;-81
2022/04/16 11:47:21;;;;;;;6.05;5.20;;;;;;;27.66;21.80;103006.06;6559729;22;20003;-82
2022/04/16 11:50:01;;;;;;;5.03;4.50;;;;;;;28.59;22.08;102993.25;6559948;22;20111;-82
2022/04/16 11:52:34;;;;;;;5.32;4.82;;;;;;;29.16;21.23;102995.44;6559907;22;20010;-80
2022/04/16 11:55:23;;;;;;;5.53;4.60;;;;;;;29.90;21.43;103004.59;6559829;22;20003;-81
2022/04/16 11:57:56;;;;;;;6.13;5.03;;;;;;;29.07;20.41;102995.00;6559535;22;20007;-82
2022/04/16 12:00:28;;;;;;;6.78;4.97;;;;;;;28.79;21.05;102995.69;6560714;22;20432;-83
2022/04/16 12:02:59;;;;;;;;;;;;;;;31.80;19.24;102996.13;6560666;22;20004;-81